createdAt,value
2022-12-29T00:01:11.975Z,96156.00
2022-12-29T00:03:41.752Z,96155.22
2022-12-29T00:06:10.207Z,96143.56
2022-12-29T00:08:44.195Z,96134.53
2022-12-29T00:11:14.682Z,96146.47
2022-12-29T00:13:57.155Z,96148.41
2022-12-29T00:16:25.684Z,96144.78
2022-12-29T00:18:55.491Z,96147.34
2022-12-29T00:21:41.554Z,96136.63
2022-12-29T00:24:29.933Z,96142.22
2022-12-29T00:27:18.403Z,96133.97
2022-12-29T00:30:03.937Z,96136.13
2022-12-29T00:32:49.812Z,96123.09
2022-12-29T00:35:24.921Z,96118.59
2022-12-29T00:38:11.559Z,96125.50
2022-12-29T00:40:57.044Z,96124.97
2022-12-29T00:43:42.734Z,96130.34
2022-12-29T00:46:16.009Z,96128.94
2022-12-29T00:49:05.771Z,96131.31
2022-12-29T00:51:35.448Z,96126.59
2022-12-29T00:54:03.873Z,96136.94
2022-12-29T00:56:32.259Z,96144.13
2022-12-29T00:59:02.611Z,96137.44
2022-12-29T01:01:31.207Z,96132.28
2022-12-29T01:04:03.778Z,96135.03
2022-12-29T01:06:33.513Z,96128.47
2022-12-29T01:09:20.672Z,96136.50
2022-12-29T01:11:49.237Z,96140.19
2022-12-29T01:14:18.006Z,96136.88
2022-12-29T01:16:47.155Z,96133.63
2022-12-29T01:19:16.188Z,96132.06
2022-12-29T01:21:46.966Z,96140.13
2022-12-29T01:24:17.535Z,96147.13
2022-12-29T01:26:46.463Z,96138.13
2022-12-29T01:29:16.231Z,96136.84
2022-12-29T01:31:45.233Z,96134.16
2022-12-29T01:34:14.220Z,96140.66
2022-12-29T01:36:42.656Z,96142.78
2022-12-29T01:39:11.041Z,96140.44
2022-12-29T01:41:40.934Z,96137.09
2022-12-29T01:44:50.958Z,96138.63
2022-12-29T01:47:25.441Z,96130.88
2022-12-29T01:49:56.016Z,96139.69
2022-12-29T01:52:24.306Z,96129.75
2022-12-29T01:54:55.072Z,96128.00
2022-12-29T01:57:28.181Z,96127.47
2022-12-29T01:59:58.892Z,96127.28
2022-12-29T02:02:30.204Z,96126.44
2022-12-29T02:05:04.702Z,96118.31
2022-12-29T02:07:33.583Z,96118.66
2022-12-29T02:10:04.055Z,96115.78
2022-12-29T02:12:33.797Z,96114.41
2022-12-29T02:15:04.695Z,96119.88
2022-12-29T02:17:46.557Z,96113.59
2022-12-29T02:20:40.187Z,96107.25
2022-12-29T02:23:41.200Z,96109.00
2022-12-29T02:26:21.524Z,96109.06
2022-12-29T02:29:14.265Z,96100.41
2022-12-29T02:31:47.843Z,96107.59
2022-12-29T02:34:24.454Z,96109.44
2022-12-29T02:37:01.639Z,96101.16
2022-12-29T02:39:35.666Z,96102.63
2022-12-29T02:42:11.166Z,96101.88
2022-12-29T02:44:46.787Z,96100.56
2022-12-29T02:47:20.389Z,96102.16
2022-12-29T02:49:54.663Z,96098.09
2022-12-29T02:52:28.682Z,96092.72
2022-12-29T02:54:56.255Z,96093.78
2022-12-29T02:57:32.960Z,96091.72
2022-12-29T03:00:05.253Z,96086.22
2022-12-29T03:02:47.225Z,96082.59
2022-12-29T03:05:21.570Z,96086.16
2022-12-29T03:07:55.176Z,96086.13
2022-12-29T03:10:37.745Z,96084.44
2022-12-29T03:13:30.792Z,96088.78
2022-12-29T03:16:05.194Z,96074.47
2022-12-29T03:18:49.856Z,96075.97
2022-12-29T03:21:21.957Z,96067.38
2022-12-29T03:23:51.175Z,96066.03
2022-12-29T03:26:20.605Z,96066.59
2022-12-29T03:28:53.451Z,96062.66
2022-12-29T03:31:22.406Z,96055.47
2022-12-29T03:33:52.694Z,96061.84
2022-12-29T03:36:25.857Z,96059.66
2022-12-29T03:38:59.462Z,96060.38
2022-12-29T03:41:30.937Z,96066.34
2022-12-29T03:43:59.174Z,96060.50
2022-12-29T03:46:27.460Z,96056.66
2022-12-29T03:48:57.113Z,96059.91
2022-12-29T03:51:25.476Z,96056.97
2022-12-29T03:53:53.745Z,96054.53
2022-12-29T03:56:22.097Z,96058.25
2022-12-29T03:58:50.448Z,96068.25
2022-12-29T04:01:18.834Z,96062.75
2022-12-29T04:03:47.375Z,96055.63
2022-12-29T04:06:17.221Z,96057.03
2022-12-29T04:08:45.540Z,96053.56
2022-12-29T04:11:13.920Z,96055.59
2022-12-29T04:13:42.706Z,96063.22
2022-12-29T04:16:10.986Z,96063.03
2022-12-29T04:18:39.277Z,96052.28
2022-12-29T04:21:08.145Z,96055.53
2022-12-29T04:23:39.139Z,96065.78
2022-12-29T04:26:09.957Z,96061.94
2022-12-29T04:28:38.719Z,96057.13
2022-12-29T04:31:07.631Z,96047.63
2022-12-29T04:33:35.933Z,96037.22
2022-12-29T04:36:04.805Z,96047.97
2022-12-29T04:38:33.076Z,96033.38
2022-12-29T04:41:03.120Z,96033.13
2022-12-29T04:43:31.526Z,96031.09
2022-12-29T04:45:59.925Z,96026.88
2022-12-29T04:48:28.312Z,96026.00
2022-12-29T04:50:56.672Z,96028.31
2022-12-29T04:53:25.093Z,96027.72
2022-12-29T04:55:54.504Z,96022.66
2022-12-29T04:58:24.391Z,96028.47
2022-12-29T05:00:53.159Z,96032.56
2022-12-29T05:03:22.859Z,96033.06
2022-12-29T05:05:55.592Z,96032.16
2022-12-29T05:08:27.978Z,96036.75
2022-12-29T05:10:56.964Z,96045.84
2022-12-29T05:13:26.703Z,96048.06
2022-12-29T05:15:55.486Z,96039.56
2022-12-29T05:18:23.995Z,96033.38
2022-12-29T05:20:52.512Z,96046.97
2022-12-29T05:23:20.754Z,96044.81
2022-12-29T05:25:48.999Z,96048.78
2022-12-29T05:28:17.263Z,96043.47
2022-12-29T05:30:50.376Z,96047.19
2022-12-29T05:33:19.132Z,96042.69
2022-12-29T05:35:47.467Z,96044.59
2022-12-29T05:38:15.778Z,96041.38
2022-12-29T05:40:44.995Z,96035.44
2022-12-29T05:43:13.240Z,96035.81
2022-12-29T05:45:41.420Z,96043.59
2022-12-29T05:48:11.035Z,96027.13
2022-12-29T05:50:39.278Z,96028.59
2022-12-29T05:53:07.582Z,96027.22
2022-12-29T05:55:36.488Z,96033.28
2022-12-29T05:58:04.735Z,96031.53
2022-12-29T06:00:33.014Z,96028.50
2022-12-29T06:03:01.780Z,96025.38
2022-12-29T06:05:31.520Z,96029.34
2022-12-29T06:07:59.777Z,96022.59
2022-12-29T06:10:28.376Z,96034.38
2022-12-29T06:12:56.709Z,96036.69
2022-12-29T06:15:25.020Z,96033.31
2022-12-29T06:17:53.215Z,96038.91
2022-12-29T06:20:21.440Z,96033.13
2022-12-29T06:22:51.096Z,96029.84
2022-12-29T06:25:19.391Z,96048.72
2022-12-29T06:27:47.654Z,96023.88
2022-12-29T06:30:17.176Z,96026.06
2022-12-29T06:32:46.746Z,96023.56
2022-12-29T06:35:14.913Z,96027.28
2022-12-29T06:37:43.090Z,96031.22
2022-12-29T06:40:13.749Z,96030.41
2022-12-29T06:42:41.885Z,96037.03
2022-12-29T06:45:10.837Z,96042.25
2022-12-29T06:47:39.054Z,96042.16
2022-12-29T06:50:08.031Z,96041.97
2022-12-29T06:52:36.743Z,96052.63
2022-12-29T06:55:05.852Z,96052.38
2022-12-29T06:57:35.897Z,96042.50
2022-12-29T07:00:05.875Z,96041.28
2022-12-29T07:02:34.358Z,96040.47
2022-12-29T07:05:02.722Z,96047.13
2022-12-29T07:07:30.998Z,96048.59
2022-12-29T07:09:59.269Z,96049.44
2022-12-29T07:12:27.560Z,96056.88
2022-12-29T07:14:57.171Z,96071.91
2022-12-29T07:17:25.514Z,96073.41
2022-12-29T07:19:53.878Z,96080.69
2022-12-29T07:22:22.484Z,96072.25
2022-12-29T07:24:50.762Z,96083.16
2022-12-29T07:27:19.062Z,96083.13
2022-12-29T07:29:47.311Z,96086.28
2022-12-29T07:32:17.058Z,96093.56
2022-12-29T07:34:46.300Z,96094.38
2022-12-29T07:37:15.061Z,96086.59
2022-12-29T07:39:44.057Z,96096.19
2022-12-29T07:42:12.503Z,96098.16
2022-12-29T07:44:40.910Z,96093.19
2022-12-29T07:47:09.193Z,96088.88
2022-12-29T07:49:38.825Z,96080.47
2022-12-29T07:52:07.172Z,96082.13
2022-12-29T07:54:35.456Z,96085.13
2022-12-29T07:57:03.712Z,96077.28
2022-12-29T07:59:32.162Z,96082.78
2022-12-29T08:02:00.521Z,96075.34
2022-12-29T08:04:28.883Z,96079.63
2022-12-29T08:06:58.526Z,96088.91
2022-12-29T08:09:26.918Z,96086.44
2022-12-29T08:11:55.831Z,96086.63
2022-12-29T08:14:24.044Z,96090.06
2022-12-29T08:16:52.400Z,96080.75
2022-12-29T08:19:20.698Z,96089.84
2022-12-29T08:21:49.022Z,96088.72
2022-12-29T08:24:18.742Z,96082.72
2022-12-29T08:26:46.961Z,96085.50
2022-12-29T08:29:15.206Z,96078.25
2022-12-29T08:31:43.905Z,96074.44
2022-12-29T08:34:12.181Z,96075.88
2022-12-29T08:36:40.580Z,96075.28
2022-12-29T08:39:09.019Z,96069.22
2022-12-29T08:41:38.646Z,96070.63
2022-12-29T08:44:07.186Z,96069.84
2022-12-29T08:46:35.512Z,96075.63
2022-12-29T08:49:03.856Z,96073.59
2022-12-29T08:51:32.300Z,96071.19
2022-12-29T08:54:01.206Z,96079.50
2022-12-29T08:56:29.652Z,96082.00
2022-12-29T08:58:59.564Z,96089.97
2022-12-29T09:01:27.943Z,96092.00
2022-12-29T09:06:45.521Z,96087.53
2022-12-29T09:09:14.078Z,96084.63
2022-12-29T09:11:42.989Z,96085.31
2022-12-29T09:14:12.632Z,96087.31
2022-12-29T09:16:55.265Z,96090.31
2022-12-29T09:19:27.882Z,96098.00
2022-12-29T09:21:56.086Z,96087.41
2022-12-29T09:24:24.269Z,96092.03
2022-12-29T09:26:52.621Z,96088.56
2022-12-29T09:29:22.418Z,96079.44
2022-12-29T09:31:50.784Z,96075.00
2022-12-29T09:34:19.085Z,96073.25
2022-12-29T09:36:47.311Z,96068.28
2022-12-29T09:39:15.576Z,96058.41
2022-12-29T09:41:48.779Z,96054.19
2022-12-29T09:44:25.212Z,96054.66
2022-12-29T09:46:56.080Z,96056.56
2022-12-29T09:49:28.232Z,96053.59
2022-12-29T09:51:58.644Z,96057.50
2022-12-29T09:54:41.428Z,96062.41
2022-12-29T09:57:18.095Z,96067.13
2022-12-29T09:59:48.793Z,96071.31
2022-12-29T10:02:33.524Z,96068.91
2022-12-29T10:05:02.222Z,96078.69
2022-12-29T10:07:38.948Z,96075.97
2022-12-29T10:10:22.783Z,96078.22
2022-12-29T10:13:01.726Z,96080.47
2022-12-29T10:15:43.137Z,96073.94
2022-12-29T10:18:23.090Z,96081.13
2022-12-29T10:20:56.119Z,96075.25
2022-12-29T10:23:29.685Z,96076.56
2022-12-29T10:25:59.586Z,96077.50
2022-12-29T10:28:36.568Z,96070.53
2022-12-29T10:31:10.321Z,96079.34
2022-12-29T10:33:41.720Z,96068.53
2022-12-29T10:36:21.363Z,96076.56
2022-12-29T10:38:59.505Z,96072.78
2022-12-29T10:41:30.605Z,96061.78
2022-12-29T10:43:59.434Z,96058.38
2022-12-29T10:46:31.657Z,96054.78
2022-12-29T10:48:59.940Z,96057.69
2022-12-29T10:51:31.558Z,96038.34
2022-12-29T10:54:02.808Z,96029.56
2022-12-29T10:56:35.177Z,96026.44
2022-12-29T10:59:08.700Z,96032.41
2022-12-29T11:01:43.287Z,96029.75
2022-12-29T11:04:28.193Z,96029.22
2022-12-29T11:06:57.434Z,96036.56
2022-12-29T11:09:41.553Z,96036.34
2022-12-29T11:12:25.347Z,96030.56
2022-12-29T11:15:05.334Z,96034.09
2022-12-29T11:17:45.718Z,96014.22
2022-12-29T11:20:29.751Z,96013.81
2022-12-29T11:22:58.169Z,96018.13
2022-12-29T11:25:26.444Z,96020.78
2022-12-29T11:27:59.227Z,96020.56
2022-12-29T11:30:29.572Z,96025.09
2022-12-29T11:32:59.942Z,96026.31
2022-12-29T11:35:37.285Z,96021.94
2022-12-29T11:38:05.926Z,96020.69
2022-12-29T11:40:35.221Z,96016.78
2022-12-29T11:43:04.668Z,96011.06
2022-12-29T11:45:35.758Z,96010.53
2022-12-29T11:48:09.323Z,96007.19
2022-12-29T11:50:39.736Z,96000.91
2022-12-29T11:53:12.207Z,96010.13
2022-12-29T11:55:40.469Z,96000.41
2022-12-29T11:58:08.877Z,96004.59
2022-12-29T12:00:41.309Z,96001.81
2022-12-29T12:03:16.046Z,96014.69
2022-12-29T12:05:51.366Z,95997.69
2022-12-29T12:08:22.343Z,96000.31
2022-12-29T12:10:55.120Z,95988.94
2022-12-29T12:13:27.993Z,95992.38
2022-12-29T12:15:59.468Z,95975.69
2022-12-29T12:18:36.328Z,95985.19
2022-12-29T12:21:10.625Z,95982.16
2022-12-29T12:23:45.763Z,95975.19
2022-12-29T12:26:16.058Z,95963.50
2022-12-29T12:28:50.705Z,95963.28
2022-12-29T12:31:26.316Z,95967.59
2022-12-29T12:34:00.948Z,95958.13
2022-12-29T12:36:45.682Z,95963.72
2022-12-29T12:39:18.417Z,95954.22
2022-12-29T12:41:54.429Z,95964.50
2022-12-29T12:44:28.680Z,95949.69
2022-12-29T12:47:11.329Z,95945.91
2022-12-29T12:50:12.815Z,95948.09
2022-12-29T12:52:51.893Z,95954.25
2022-12-29T12:55:36.696Z,95967.56
2022-12-29T12:58:10.838Z,95956.72
2022-12-29T13:00:47.592Z,95958.34
2022-12-29T13:03:19.768Z,95962.66
2022-12-29T13:06:05.386Z,95946.28
2022-12-29T13:08:48.227Z,95944.19
2022-12-29T13:11:22.974Z,95948.50
2022-12-29T13:14:09.832Z,95949.34
2022-12-29T13:16:44.047Z,95944.19
2022-12-29T13:19:16.593Z,95955.09
2022-12-29T13:22:03.798Z,95944.41
2022-12-29T13:24:42.613Z,95942.13
2022-12-29T13:27:18.463Z,95937.22
2022-12-29T13:29:51.317Z,95951.78
2022-12-29T13:32:29.421Z,95954.44
2022-12-29T13:35:05.491Z,95953.03
2022-12-29T13:37:37.167Z,95958.53
2022-12-29T13:40:15.513Z,95953.63
2022-12-29T13:42:44.591Z,95951.78
2022-12-29T13:45:17.019Z,95960.78
2022-12-29T13:47:50.135Z,95957.53
2022-12-29T13:50:21.262Z,95958.16
2022-12-29T13:52:58.090Z,95962.22
2022-12-29T13:55:29.743Z,95960.41
2022-12-29T13:58:04.321Z,95960.09
2022-12-29T14:00:37.766Z,95957.63
2022-12-29T14:03:22.811Z,95962.28
2022-12-29T14:06:07.314Z,95955.47
2022-12-29T14:08:37.679Z,95961.19
2022-12-29T14:11:10.353Z,95962.34
2022-12-29T14:13:41.678Z,95966.41
2022-12-29T14:16:28.774Z,95963.31
2022-12-29T14:18:59.464Z,95968.69
2022-12-29T14:24:41.878Z,95971.84
2022-12-29T14:27:43.447Z,95971.69
2022-12-29T14:30:41.430Z,95971.19
2022-12-29T14:33:15.681Z,95970.88
2022-12-29T14:35:46.898Z,95975.44
2022-12-29T14:38:18.958Z,95967.03
2022-12-29T14:40:50.104Z,95973.56
2022-12-29T14:43:26.047Z,95971.84
2022-12-29T14:45:57.922Z,95969.03
2022-12-29T14:48:41.468Z,95970.59
2022-12-29T14:51:21.010Z,95973.63
2022-12-29T14:53:50.942Z,95974.84
2022-12-29T14:56:22.196Z,95973.84
2022-12-29T14:58:53.101Z,95973.59
2022-12-29T15:01:26.037Z,95976.09
2022-12-29T15:03:57.214Z,95978.09
2022-12-29T15:06:27.161Z,95979.94
2022-12-29T15:09:01.075Z,95987.19
2022-12-29T15:11:44.274Z,95986.22
2022-12-29T15:14:32.587Z,95983.78
2022-12-29T15:17:01.206Z,95984.28
2022-12-29T15:19:30.257Z,95986.06
2022-12-29T15:21:58.970Z,95984.16
2022-12-29T15:24:27.293Z,95982.28
2022-12-29T15:26:57.218Z,95983.19
2022-12-29T15:29:38.731Z,95990.03
2022-12-29T15:32:20.923Z,95981.28
2022-12-29T15:34:50.628Z,95992.00
2022-12-29T15:37:24.125Z,95987.81
2022-12-29T15:39:53.221Z,95994.47
2022-12-29T15:42:33.372Z,95980.94
2022-12-29T15:45:10.929Z,95989.97
2022-12-29T15:47:41.175Z,95990.56
2022-12-29T15:50:16.459Z,95986.63
2022-12-29T15:52:44.898Z,95981.22
2022-12-29T15:55:21.996Z,95986.09
2022-12-29T15:57:51.585Z,95993.09
2022-12-29T16:00:25.746Z,95990.78
2022-12-29T16:02:54.722Z,95989.78
2022-12-29T16:05:23.162Z,95993.44
2022-12-29T16:07:56.125Z,95991.78
2022-12-29T16:10:30.236Z,95997.31
2022-12-29T16:13:06.447Z,95998.34
2022-12-29T16:15:35.057Z,95996.88
2022-12-29T16:18:03.375Z,95998.84
2022-12-29T16:20:39.710Z,95997.00
2022-12-29T16:23:11.198Z,95989.28
2022-12-29T16:25:39.539Z,96006.44
2022-12-29T16:28:19.262Z,96006.63
2022-12-29T16:30:47.829Z,96002.38
2022-12-29T16:33:35.202Z,96011.09
2022-12-29T16:36:04.588Z,96010.94
2022-12-29T16:38:34.291Z,96011.84
2022-12-29T16:41:04.148Z,96019.25
2022-12-29T16:43:35.853Z,96020.50
2022-12-29T16:46:27.288Z,96021.00
2022-12-29T16:48:56.597Z,96021.75
2022-12-29T16:51:32.692Z,96031.53
2022-12-29T16:54:02.061Z,96033.56
2022-12-29T16:56:32.889Z,96029.03
2022-12-29T16:59:05.818Z,96019.63
2022-12-29T17:01:37.561Z,96025.72
2022-12-29T17:04:08.804Z,96013.50
2022-12-29T17:06:37.055Z,96026.72
2022-12-29T17:09:18.388Z,96036.16
2022-12-29T17:12:04.980Z,96027.34
2022-12-29T17:14:45.441Z,96023.16
2022-12-29T17:17:17.833Z,96033.13
2022-12-29T17:19:49.270Z,96025.28
2022-12-29T17:22:20.067Z,96024.47
2022-12-29T17:24:48.342Z,96030.34
2022-12-29T17:27:24.808Z,96031.22
2022-12-29T17:29:55.980Z,96032.19
2022-12-29T17:32:24.487Z,96028.06
2022-12-29T17:34:52.797Z,96024.81
2022-12-29T17:37:33.202Z,96028.44
2022-12-29T17:40:01.718Z,96029.03
2022-12-29T17:42:30.329Z,96024.88
2022-12-29T17:45:00.336Z,96029.81
2022-12-29T17:47:28.620Z,96019.31
2022-12-29T17:49:56.933Z,96031.53
2022-12-29T17:52:25.303Z,96036.59
2022-12-29T17:54:54.262Z,96038.06
2022-12-29T17:57:22.738Z,96033.47
2022-12-29T17:59:51.246Z,96033.72
2022-12-29T18:02:28.124Z,96022.63
2022-12-29T18:04:57.033Z,96023.72
2022-12-29T18:07:31.132Z,96025.22
2022-12-29T18:10:04.259Z,96033.63
2022-12-29T18:12:35.126Z,96026.31
2022-12-29T18:15:03.456Z,96024.94
2022-12-29T18:17:33.258Z,96031.97
2022-12-29T18:20:01.514Z,96016.97
2022-12-29T18:22:30.284Z,96028.34
2022-12-29T18:24:58.522Z,96019.38
2022-12-29T18:27:27.637Z,96027.81
2022-12-29T18:29:55.984Z,96025.56
2022-12-29T18:32:24.323Z,96031.69
2022-12-29T18:34:53.918Z,96033.28
2022-12-29T18:37:22.286Z,96032.09
2022-12-29T18:39:51.369Z,96021.81
2022-12-29T18:42:19.625Z,96022.00
2022-12-29T18:44:47.860Z,96017.78
2022-12-29T18:47:16.162Z,96027.31
2022-12-29T18:49:44.565Z,96033.72
2022-12-29T18:52:14.905Z,96032.38
2022-12-29T18:54:43.161Z,96033.06
2022-12-29T18:57:11.531Z,96039.84
2022-12-29T18:59:41.067Z,96045.16
2022-12-29T19:02:17.621Z,96039.31
2022-12-29T19:04:48.919Z,96053.06
2022-12-29T19:07:22.458Z,96051.22
2022-12-29T19:09:50.728Z,96048.72
2022-12-29T19:12:22.263Z,96039.56
2022-12-29T19:14:53.599Z,96041.56
2022-12-29T19:17:21.923Z,96045.53
2022-12-29T19:19:50.177Z,96046.28
2022-12-29T19:22:18.507Z,96044.50
2022-12-29T19:24:48.286Z,96048.22
2022-12-29T19:27:16.533Z,96035.28
2022-12-29T19:29:44.899Z,96038.59
2022-12-29T19:32:13.361Z,96043.53
2022-12-29T19:34:41.911Z,96035.38
2022-12-29T19:37:10.208Z,96035.16
2022-12-29T19:39:38.537Z,96033.47
2022-12-29T19:42:08.388Z,96033.25
2022-12-29T19:44:36.819Z,96026.31
2022-12-29T19:47:05.318Z,96038.94
2022-12-29T19:49:33.703Z,96029.06
2022-12-29T19:52:01.995Z,96034.53
2022-12-29T19:54:30.313Z,96032.53
2022-12-29T19:56:58.705Z,96038.13
2022-12-29T19:59:28.928Z,96039.41
2022-12-29T20:01:58.603Z,96042.97
2022-12-29T20:04:26.952Z,96045.38
2022-12-29T20:06:55.212Z,96045.53
2022-12-29T20:09:23.681Z,96048.41
2022-12-29T20:11:51.965Z,96056.81
2022-12-29T20:14:20.273Z,96057.47
2022-12-29T20:17:10.076Z,96056.84
2022-12-29T20:19:40.107Z,96063.25
2022-12-29T20:22:10.180Z,96055.50
2022-12-29T20:24:45.191Z,96060.59
2022-12-29T20:27:18.494Z,96061.78
2022-12-29T20:29:47.030Z,96065.19
2022-12-29T20:32:18.417Z,96056.63
2022-12-29T20:34:47.758Z,96058.13
2022-12-29T20:37:17.194Z,96049.59
2022-12-29T20:39:49.541Z,96052.97
2022-12-29T20:42:19.100Z,96037.13
2022-12-29T20:44:47.968Z,96049.97
2022-12-29T20:47:19.564Z,96050.13
2022-12-29T20:49:49.015Z,96048.88
2022-12-29T20:52:18.170Z,96022.25
2022-12-29T20:54:47.381Z,96020.19
2022-12-29T20:57:16.419Z,96016.00
2022-12-29T20:59:45.745Z,96016.38
2022-12-29T21:02:21.938Z,96020.53
2022-12-29T21:05:23.392Z,96018.63
2022-12-29T21:07:41.854Z,96026.22
2022-12-29T21:10:10.211Z,96024.91
2022-12-29T21:12:38.569Z,96019.63
2022-12-29T21:15:07.897Z,96021.06
2022-12-29T21:17:37.815Z,96027.31
2022-12-29T21:20:06.746Z,96023.09
2022-12-29T21:22:35.002Z,96024.03
2022-12-29T21:25:03.311Z,96027.34
2022-12-29T21:27:31.576Z,96023.44
2022-12-29T21:29:59.896Z,96034.69
2022-12-29T21:32:28.316Z,96024.84
2022-12-29T21:34:58.041Z,96024.50
2022-12-29T21:37:26.423Z,96023.59
2022-12-29T21:39:54.804Z,96020.84
2022-12-29T21:42:23.175Z,96028.72
2022-12-29T21:45:09.127Z,96030.13
2022-12-29T21:47:51.303Z,96023.22
2022-12-29T21:50:20.995Z,96030.31
2022-12-29T21:52:49.386Z,96025.81
2022-12-29T21:55:17.990Z,96019.56
2022-12-29T21:58:04.098Z,96019.31
2022-12-29T22:01:01.609Z,96018.72
2022-12-29T22:03:47.707Z,96034.97
2022-12-29T22:06:34.806Z,96042.28
2022-12-29T22:09:20.721Z,96045.19
2022-12-29T22:12:06.875Z,96044.00
2022-12-29T22:14:35.267Z,96047.59
2022-12-29T22:17:03.702Z,96050.28
2022-12-29T22:19:32.240Z,96051.16
2022-12-29T22:22:02.359Z,96059.53
2022-12-29T22:24:30.732Z,96066.91
2022-12-29T22:26:59.099Z,96056.78
2022-12-29T22:29:27.513Z,96059.25
2022-12-29T22:31:55.858Z,96057.72
2022-12-29T22:34:24.467Z,96058.50
2022-12-29T22:36:52.780Z,96064.13
2022-12-29T22:39:22.503Z,96059.22
2022-12-29T22:41:50.992Z,96049.75
2022-12-29T22:44:19.367Z,96076.56
2022-12-29T22:46:47.742Z,96091.38
2022-12-29T22:49:16.153Z,96095.88
2022-12-29T22:51:44.477Z,96101.41
2022-12-29T22:54:12.773Z,96102.16
2022-12-29T22:56:42.857Z,96103.81
2022-12-29T22:59:11.862Z,96112.47
2022-12-29T23:01:40.732Z,96112.63
2022-12-29T23:04:55.704Z,96111.91
2022-12-29T23:06:57.749Z,96115.53
2022-12-29T23:09:26.066Z,96123.38
2022-12-29T23:11:55.710Z,96129.47
2022-12-29T23:14:24.408Z,96130.44
2022-12-29T23:16:52.595Z,96137.38
2022-12-29T23:19:20.904Z,96134.09
2022-12-29T23:21:49.271Z,96143.00
2022-12-29T23:24:17.593Z,96152.00
2022-12-29T23:26:47.333Z,96160.75
2022-12-29T23:29:19.415Z,96152.56
2022-12-29T23:31:48.349Z,96157.47
2022-12-29T23:34:17.528Z,96145.22
2022-12-29T23:36:46.162Z,96149.16
2022-12-29T23:39:20.701Z,96143.06
2022-12-29T23:41:49.027Z,96145.69
2022-12-29T23:44:18.793Z,96141.81
2022-12-29T23:46:47.226Z,96148.56
2022-12-29T23:49:15.658Z,96146.53
2022-12-29T23:51:43.998Z,96156.63
2022-12-29T23:54:12.347Z,96151.22
2022-12-29T23:56:40.661Z,96163.31
2022-12-29T23:59:08.945Z,96168.06
